Terminal Aerodrome Forecast
Issued by NWS

Home | Current Version | Previous Version | Text Only | Print | Product List | Glossary On
Versions: 1 2 3 4 5 6 7 8 9 10 11 12 13 14 15 16
000
FTUS44 KEWX 301700
TAFSSF
TAF
KSSF 301728Z 3018/3118 VRB04KT P6SM SCT030
     FM310700 VRB03KT P6SM BKN010
     FM311600 16007KT P6SM SCT035=

USA.gov is the U.S. government's official web portal to all federal, state and local government web resources and services.